createdAt,value
2023-04-11T00:00:19.844Z,14.80
2023-04-11T00:03:08.923Z,12.80
2023-04-11T00:05:37.812Z,11.40
2023-04-11T00:08:06.828Z,10.80
2023-04-11T00:10:35.900Z,12.70
2023-04-11T00:13:04.767Z,11.10
2023-04-11T00:15:34.049Z,11.60
2023-04-11T00:18:03.251Z,12.40
2023-04-11T00:20:32.296Z,10.20
2023-04-11T00:23:01.117Z,11.80
2023-04-11T00:25:30.411Z,9.40
2023-04-11T00:27:59.242Z,11.40
2023-04-11T00:30:28.169Z,10.10
2023-04-11T00:32:57.059Z,9.20
2023-04-11T00:35:25.917Z,11.10
2023-04-11T00:37:56.425Z,10.80
2023-04-11T00:40:25.342Z,9.70
2023-04-11T00:42:54.915Z,10.40
2023-04-11T00:45:23.667Z,10.10
2023-04-11T00:47:53.699Z,12.70
2023-04-11T00:50:25.324Z,10.90
2023-04-11T00:52:57.094Z,12.00
2023-04-11T00:55:26.569Z,11.20
2023-04-11T00:57:55.772Z,11.40
2023-04-11T01:00:25.312Z,10.20
2023-04-11T01:02:54.743Z,12.90
2023-04-11T01:05:23.958Z,12.20
2023-04-11T01:07:55.029Z,12.20
2023-04-11T01:10:26.094Z,11.70
2023-04-11T01:12:55.299Z,13.00
2023-04-11T01:15:24.069Z,12.50
2023-04-11T01:17:55.684Z,11.40
2023-04-11T01:20:26.583Z,12.80
2023-04-11T01:22:59.151Z,12.20
2023-04-11T01:25:28.036Z,12.40
2023-04-11T01:27:57.296Z,13.30
2023-04-11T01:30:26.047Z,10.80
2023-04-11T01:32:54.762Z,12.90
2023-04-11T01:35:23.822Z,13.50
2023-04-11T01:37:52.746Z,10.70
2023-04-11T01:40:23.917Z,14.70
2023-04-11T01:42:54.723Z,13.50
2023-04-11T01:45:24.273Z,14.30
2023-04-11T01:47:54.789Z,14.50
2023-04-11T01:50:24.576Z,14.40
2023-04-11T01:52:53.470Z,12.50
2023-04-11T01:55:22.132Z,12.30
2023-04-11T01:57:50.913Z,14.50
2023-04-11T02:00:20.441Z,12.80
2023-04-11T02:02:49.267Z,14.20
2023-04-11T02:05:18.070Z,13.20
2023-04-11T02:07:46.859Z,12.50
2023-04-11T02:10:19.451Z,14.40
2023-04-11T02:12:48.202Z,14.60
2023-04-11T02:15:17.035Z,16.10
2023-04-11T02:17:45.853Z,15.20
2023-04-11T02:20:15.493Z,16.40
2023-04-11T02:22:44.266Z,13.90
2023-04-11T02:25:12.991Z,16.20
2023-04-11T02:27:41.700Z,13.90
2023-04-11T02:30:10.783Z,12.70
2023-04-11T02:32:39.507Z,15.40
2023-04-11T02:35:09.242Z,13.90
2023-04-11T02:37:38.001Z,11.00
2023-04-11T02:40:08.268Z,12.70
2023-04-11T02:45:12.385Z,13.40
2023-04-11T02:47:41.497Z,13.40
2023-04-11T02:50:10.920Z,14.70
2023-04-11T02:52:47.243Z,12.70
2023-04-11T02:55:16.786Z,12.00
2023-04-11T02:57:45.839Z,14.20
2023-04-11T03:00:15.847Z,13.70
2023-04-11T03:02:51.095Z,12.00
2023-04-11T03:05:23.275Z,13.00
2023-04-11T03:07:54.191Z,12.30
2023-04-11T03:10:23.542Z,13.60
2023-04-11T03:12:52.486Z,13.60
2023-04-11T03:15:21.312Z,13.70
2023-04-11T03:17:50.020Z,15.90
2023-04-11T03:20:20.341Z,13.70
2023-04-11T03:22:51.584Z,13.50
2023-04-11T03:25:21.530Z,20.10
2023-04-11T03:27:51.234Z,16.80
2023-04-11T03:30:20.557Z,20.20
2023-04-11T03:32:49.887Z,16.50
2023-04-11T03:35:20.681Z,16.30
2023-04-11T03:37:50.903Z,15.90
2023-04-11T03:40:19.908Z,14.30
2023-04-11T03:45:24.790Z,15.30
2023-04-11T03:47:53.735Z,16.50
2023-04-11T03:50:24.710Z,16.00
2023-04-11T03:52:57.531Z,17.80
2023-04-11T03:55:26.497Z,16.90
2023-04-11T03:57:56.838Z,19.40
2023-04-11T04:00:27.528Z,15.10
2023-04-11T04:03:01.561Z,19.90
2023-04-11T04:05:30.533Z,14.70
2023-04-11T04:07:59.479Z,19.10
2023-04-11T04:10:42.394Z,15.80
2023-04-11T04:13:11.855Z,17.90
2023-04-11T04:15:43.640Z,21.20
2023-04-11T04:18:13.184Z,19.80
2023-04-11T04:20:47.572Z,16.00
2023-04-11T04:23:18.368Z,14.60
2023-04-11T04:26:02.444Z,16.20
2023-04-11T04:28:33.017Z,17.80
2023-04-11T04:31:04.220Z,18.10
2023-04-11T04:33:52.345Z,17.90
2023-04-11T04:36:25.225Z,16.70
2023-04-11T04:38:54.820Z,16.00
2023-04-11T04:41:24.348Z,16.00
2023-04-11T04:43:59.016Z,16.70
2023-04-11T04:47:04.073Z,17.30
2023-04-11T04:49:33.676Z,15.70
2023-04-11T04:52:02.804Z,20.10
2023-04-11T04:54:31.640Z,14.80
2023-04-11T04:57:01.629Z,16.50
2023-04-11T04:59:30.791Z,14.60
2023-04-11T05:02:04.722Z,17.30
2023-04-11T05:04:34.409Z,18.50
2023-04-11T05:07:04.546Z,19.40
2023-04-11T05:09:33.461Z,16.80
2023-04-11T05:12:27.125Z,16.00
2023-04-11T05:14:59.599Z,17.00
2023-04-11T05:17:30.098Z,16.90
2023-04-11T05:19:58.852Z,14.60
2023-04-11T05:22:28.353Z,17.50
2023-04-11T05:24:57.622Z,18.30
2023-04-11T05:27:27.193Z,16.90
2023-04-11T05:29:56.036Z,16.10
2023-04-11T05:32:24.810Z,16.60
2023-04-11T05:34:58.830Z,18.70
2023-04-11T05:37:49.140Z,16.20
2023-04-11T05:40:18.402Z,18.50
2023-04-11T05:42:47.179Z,19.00
2023-04-11T05:45:16.072Z,19.90
2023-04-11T05:47:44.878Z,19.80
2023-04-11T05:50:15.289Z,16.60
2023-04-11T05:52:44.280Z,14.30
2023-04-11T05:55:13.011Z,17.60
2023-04-11T05:57:41.772Z,15.60
2023-04-11T06:00:13.560Z,16.00
2023-04-11T06:02:42.878Z,16.20
2023-04-11T06:05:12.225Z,15.40
2023-04-11T06:07:41.621Z,16.00
2023-04-11T06:10:11.174Z,19.20
2023-04-11T06:12:39.986Z,16.50
2023-04-11T06:15:12.009Z,18.00
2023-04-11T06:17:40.798Z,22.00
2023-04-11T06:20:10.638Z,18.90
2023-04-11T06:22:40.455Z,19.00
2023-04-11T06:25:10.483Z,18.60
2023-04-11T06:27:39.301Z,21.90
2023-04-11T06:30:09.493Z,18.50
2023-04-11T06:32:38.294Z,16.00
2023-04-11T06:35:07.429Z,19.50
2023-04-11T06:37:36.168Z,17.40
2023-04-11T06:40:08.323Z,16.70
2023-04-11T06:42:37.054Z,14.80
2023-04-11T06:45:06.770Z,18.50
2023-04-11T06:47:35.567Z,15.00
2023-04-11T06:50:05.239Z,15.50
2023-04-11T06:52:34.021Z,15.10
2023-04-11T06:55:02.796Z,17.10
2023-04-11T06:57:31.572Z,17.30
2023-04-11T07:00:00.298Z,16.60
2023-04-11T07:02:29.273Z,17.70
2023-04-11T07:04:58.395Z,20.30
2023-04-11T07:07:27.749Z,15.10
2023-04-11T07:09:56.497Z,15.80
2023-04-11T07:12:25.236Z,17.00
2023-04-11T07:14:54.286Z,15.30
2023-04-11T07:17:23.076Z,16.00
2023-04-11T07:19:51.944Z,15.30
2023-04-11T07:22:20.717Z,17.50
2023-04-11T07:24:55.454Z,14.60
2023-04-11T07:27:24.740Z,15.60
2023-04-11T07:29:53.393Z,15.80
2023-04-11T07:32:22.183Z,15.30
2023-04-11T07:34:51.029Z,17.70
2023-04-11T07:37:19.774Z,15.70
2023-04-11T07:39:49.447Z,16.50
2023-04-11T07:42:18.318Z,17.30
2023-04-11T07:44:47.066Z,16.20
2023-04-11T07:47:15.987Z,14.70
2023-04-11T07:49:44.782Z,19.70
2023-04-11T07:52:14.607Z,15.20
2023-04-11T07:54:43.336Z,13.80
2023-04-11T07:57:12.027Z,16.50
2023-04-11T07:59:40.968Z,16.10
2023-04-11T08:02:09.875Z,14.60
2023-04-11T08:04:39.510Z,17.10
2023-04-11T08:07:08.274Z,15.50
2023-04-11T08:09:37.107Z,15.00
2023-04-11T08:12:06.379Z,13.60
2023-04-11T08:14:36.295Z,16.10
2023-04-11T08:17:12.101Z,20.00
2023-04-11T08:19:46.617Z,15.50
2023-04-11T08:22:15.506Z,20.80
2023-04-11T08:24:44.222Z,18.20
2023-04-11T08:27:13.003Z,16.20
2023-04-11T08:29:41.714Z,15.10
2023-04-11T08:32:10.457Z,19.90
2023-04-11T08:34:39.274Z,20.20
2023-04-11T08:37:08.012Z,17.70
2023-04-11T08:39:36.836Z,17.60
2023-04-11T08:42:06.058Z,19.10
2023-04-11T08:44:36.510Z,20.30
2023-04-11T08:47:06.613Z,19.10
2023-04-11T08:49:35.435Z,20.20
2023-04-11T08:52:04.389Z,18.90
2023-04-11T08:54:33.253Z,19.20
2023-04-11T08:57:02.134Z,18.20
2023-04-11T08:59:33.746Z,17.20
2023-04-11T09:02:09.673Z,14.30
2023-04-11T09:04:45.114Z,16.20
2023-04-11T09:07:16.656Z,15.50
2023-04-11T09:09:46.546Z,17.20
2023-04-11T09:12:16.078Z,20.60
2023-04-11T09:14:45.112Z,17.90
2023-04-11T09:17:13.998Z,19.80
2023-04-11T09:19:43.206Z,19.50
2023-04-11T09:22:13.915Z,19.00
2023-04-11T09:24:43.168Z,14.70
2023-04-11T09:27:19.879Z,14.40
2023-04-11T09:29:49.343Z,11.00
2023-04-11T09:32:30.784Z,12.20
2023-04-11T09:35:21.143Z,11.50
2023-04-11T09:37:58.564Z,14.50
2023-04-11T09:40:31.976Z,12.60
2023-04-11T09:43:04.072Z,12.30
2023-04-11T09:45:40.925Z,13.20
2023-04-11T09:48:18.131Z,10.60
2023-04-11T09:50:50.102Z,18.30
2023-04-11T09:53:20.801Z,12.70
2023-04-11T09:55:49.921Z,14.20
2023-04-11T09:58:21.329Z,14.10
2023-04-11T10:00:50.702Z,13.60
2023-04-11T10:03:20.617Z,14.10
2023-04-11T10:05:53.749Z,12.30
2023-04-11T10:08:33.069Z,11.50
2023-04-11T10:11:04.046Z,10.70
2023-04-11T10:13:43.847Z,9.40
2023-04-11T10:16:18.890Z,11.50
2023-04-11T10:18:53.809Z,12.50
2023-04-11T10:21:32.903Z,9.50
2023-04-11T10:24:18.551Z,9.50
2023-04-11T10:27:05.248Z,9.50
2023-04-11T10:29:34.048Z,9.40
2023-04-11T10:32:14.076Z,10.70
2023-04-11T10:35:04.479Z,10.20
2023-04-11T10:37:35.201Z,10.20
2023-04-11T10:40:10.315Z,11.00
2023-04-11T10:42:45.887Z,10.40
2023-04-11T10:45:30.633Z,11.00
2023-04-11T10:48:13.718Z,12.60
2023-04-11T10:50:46.500Z,11.60
2023-04-11T10:53:36.977Z,11.60
2023-04-11T10:56:06.261Z,16.00
2023-04-11T10:58:40.031Z,16.20
2023-04-11T11:01:25.933Z,14.70
2023-04-11T11:04:01.514Z,15.50
2023-04-11T11:06:38.110Z,15.10
2023-04-11T11:09:26.519Z,14.10
2023-04-11T11:14:44.234Z,18.70
2023-04-11T11:17:17.309Z,15.20
2023-04-11T11:19:47.817Z,20.80
2023-04-11T11:22:26.153Z,16.20
2023-04-11T11:24:55.138Z,21.00
2023-04-11T11:27:25.310Z,18.90
2023-04-11T11:29:54.259Z,14.60
2023-04-11T11:32:28.738Z,17.80
2023-04-11T11:34:58.944Z,17.90
2023-04-11T11:37:27.814Z,16.60
2023-04-11T11:39:57.336Z,16.00
2023-04-11T11:42:28.159Z,19.70
2023-04-11T11:45:17.150Z,21.20
2023-04-11T11:47:48.108Z,22.90
2023-04-11T11:50:31.462Z,17.60
2023-04-11T11:53:14.262Z,15.30
2023-04-11T11:55:43.799Z,16.90
2023-04-11T11:58:12.604Z,17.50
2023-04-11T12:00:41.950Z,19.60
2023-04-11T12:03:11.180Z,18.60
2023-04-11T12:05:41.853Z,16.50
2023-04-11T12:08:11.264Z,18.90
2023-04-11T12:10:43.127Z,17.60
2023-04-11T12:13:23.731Z,20.50
2023-04-11T12:15:57.342Z,15.00
2023-04-11T12:18:27.945Z,17.10
2023-04-11T12:20:56.719Z,16.90
2023-04-11T12:23:25.562Z,16.70
2023-04-11T12:25:54.280Z,15.50
2023-04-11T12:28:23.104Z,22.80
2023-04-11T12:30:52.016Z,18.30
2023-04-11T12:33:21.266Z,18.90
2023-04-11T12:35:49.899Z,15.10
2023-04-11T12:38:18.695Z,14.60
2023-04-11T12:40:47.438Z,16.10
2023-04-11T12:43:16.156Z,15.40
2023-04-11T12:45:44.810Z,19.20
2023-04-11T12:48:13.496Z,17.80
2023-04-11T12:50:42.254Z,15.70
2023-04-11T12:53:11.154Z,15.70
2023-04-11T12:55:39.937Z,16.00
2023-04-11T12:58:09.659Z,20.10
2023-04-11T13:00:38.445Z,17.10
2023-04-11T13:03:07.296Z,16.30
2023-04-11T13:05:37.389Z,13.80
2023-04-11T13:08:06.167Z,15.00
2023-04-11T13:10:34.927Z,17.90
2023-04-11T13:13:15.381Z,14.10
2023-04-11T13:18:15.876Z,15.30
2023-04-11T13:20:44.629Z,18.10
2023-04-11T13:23:14.887Z,15.60
2023-04-11T13:25:45.331Z,14.50
2023-04-11T13:28:13.996Z,13.90
2023-04-11T13:30:42.809Z,15.40
2023-04-11T13:33:11.540Z,16.50
2023-04-11T13:35:40.336Z,15.40
2023-04-11T13:38:11.310Z,16.80
2023-04-11T13:40:42.858Z,15.30
2023-04-11T13:43:11.826Z,17.40
2023-04-11T13:45:40.759Z,17.50
2023-04-11T13:48:09.641Z,20.50
2023-04-11T13:50:38.739Z,13.80
2023-04-11T13:53:07.474Z,16.60
2023-04-11T13:55:36.556Z,16.50
2023-04-11T13:58:05.674Z,19.70
2023-04-11T14:00:36.309Z,21.70
2023-04-11T14:03:05.179Z,17.10
2023-04-11T14:05:35.793Z,15.70
2023-04-11T14:08:05.376Z,16.00
2023-04-11T14:10:34.535Z,15.40
2023-04-11T14:13:03.738Z,13.00
2023-04-11T14:15:33.467Z,14.40
2023-04-11T14:18:02.262Z,16.20
2023-04-11T14:20:31.217Z,16.80
2023-04-11T14:23:01.276Z,16.40
2023-04-11T14:25:30.107Z,16.30
2023-04-11T14:27:59.761Z,17.80
2023-04-11T14:30:28.859Z,15.00
2023-04-11T14:32:57.558Z,16.10
2023-04-11T14:35:26.455Z,17.00
2023-04-11T14:37:55.088Z,18.90
2023-04-11T14:40:24.114Z,18.40
2023-04-11T14:42:52.840Z,14.60
2023-04-11T14:45:21.603Z,15.70
2023-04-11T14:47:50.414Z,17.80
2023-04-11T14:50:19.319Z,19.40
2023-04-11T14:52:48.515Z,18.10
2023-04-11T14:55:17.562Z,17.40
2023-04-11T14:57:53.555Z,18.20
2023-04-11T15:00:24.934Z,16.80
2023-04-11T15:02:56.676Z,12.30
2023-04-11T15:05:25.977Z,17.10
2023-04-11T15:07:54.884Z,16.40
2023-04-11T15:10:25.754Z,14.30
2023-04-11T15:12:54.590Z,17.50
2023-04-11T15:15:23.679Z,14.60
2023-04-11T15:18:22.865Z,18.10
2023-04-11T15:20:52.774Z,14.50
2023-04-11T15:23:22.191Z,15.00
2023-04-11T15:25:59.798Z,21.70
2023-04-11T15:28:33.755Z,20.40
2023-04-11T15:31:05.164Z,21.90
2023-04-11T15:33:34.387Z,32.30
2023-04-11T15:36:03.448Z,29.10
2023-04-11T15:38:32.594Z,17.60
2023-04-11T15:41:01.387Z,18.40
2023-04-11T15:43:30.132Z,24.60
2023-04-11T15:45:58.853Z,25.70
2023-04-11T15:48:27.678Z,26.10
2023-04-11T15:50:56.332Z,31.10
2023-04-11T15:53:25.251Z,38.90
2023-04-11T15:55:54.252Z,29.20
2023-04-11T15:58:23.034Z,56.00
2023-04-11T16:00:54.942Z,85.50
2023-04-11T16:03:31.701Z,50.80
2023-04-11T16:06:02.029Z,51.40
2023-04-11T16:08:30.808Z,54.30
2023-04-11T16:10:59.928Z,60.20
2023-04-11T16:13:29.160Z,57.10
2023-04-11T16:15:58.730Z,47.10
2023-04-11T16:18:27.635Z,42.20
2023-04-11T16:20:56.419Z,54.30
2023-04-11T16:23:25.414Z,38.30
2023-04-11T16:25:54.377Z,35.10
2023-04-11T16:28:23.179Z,30.80
2023-04-11T16:30:51.930Z,25.60
2023-04-11T16:33:20.722Z,26.40
2023-04-11T16:35:49.567Z,27.40
2023-04-11T16:38:18.653Z,27.70
2023-04-11T16:40:47.448Z,28.40
2023-04-11T16:43:16.253Z,28.60
2023-04-11T16:45:45.132Z,26.10
2023-04-11T16:48:14.150Z,28.90
2023-04-11T16:50:43.339Z,28.20
2023-04-11T16:53:12.236Z,27.60
2023-04-11T16:55:41.039Z,22.40
2023-04-11T16:58:10.536Z,26.50
2023-04-11T17:00:39.352Z,24.40
2023-04-11T17:03:08.230Z,30.50
2023-04-11T17:05:38.119Z,33.00
2023-04-11T17:08:07.209Z,28.40
2023-04-11T17:10:35.989Z,37.10
2023-04-11T17:13:04.741Z,28.80
2023-04-11T17:15:35.322Z,39.10
2023-04-11T17:18:04.280Z,35.90
2023-04-11T17:20:33.160Z,44.20
2023-04-11T17:23:02.105Z,41.60
2023-04-11T17:25:31.733Z,46.50
2023-04-11T17:28:00.806Z,45.40
2023-04-11T17:30:31.156Z,41.70
2023-04-11T17:33:00.323Z,48.40
2023-04-11T17:35:29.204Z,38.50
2023-04-11T17:37:57.960Z,43.80
2023-04-11T17:40:26.882Z,45.80
2023-04-11T17:42:57.785Z,69.10
2023-04-11T17:45:27.673Z,46.40
2023-04-11T17:47:58.381Z,48.00
2023-04-11T17:50:27.677Z,44.80
2023-04-11T17:52:56.567Z,43.50
2023-04-11T17:55:25.627Z,48.30
2023-04-11T17:57:54.403Z,49.80
2023-04-11T18:00:23.655Z,49.90
2023-04-11T18:02:55.161Z,52.60
2023-04-11T18:05:27.110Z,48.00
2023-04-11T18:07:58.383Z,44.40
2023-04-11T18:10:28.463Z,54.20
2023-04-11T18:12:58.750Z,47.90
2023-04-11T18:15:28.245Z,53.20
2023-04-11T18:17:57.068Z,51.60
2023-04-11T18:20:26.600Z,51.90
2023-04-11T18:22:57.974Z,58.90
2023-04-11T18:25:27.731Z,57.50
2023-04-11T18:27:57.909Z,57.90
2023-04-11T18:30:27.156Z,58.60
2023-04-11T18:32:56.944Z,53.40
2023-04-11T18:35:26.554Z,59.40
2023-04-11T18:37:56.050Z,60.40
2023-04-11T18:40:25.113Z,60.80
2023-04-11T18:42:56.026Z,58.90
2023-04-11T18:45:25.993Z,53.60
2023-04-11T18:47:55.036Z,56.60
2023-04-11T18:50:24.235Z,52.50
2023-04-11T18:52:56.152Z,57.90
2023-04-11T18:55:27.720Z,54.70
2023-04-11T18:57:59.688Z,48.70
2023-04-11T19:00:30.382Z,47.20
2023-04-11T19:02:59.323Z,45.00
2023-04-11T19:05:29.390Z,49.60
2023-04-11T19:08:00.213Z,51.50
2023-04-11T19:10:29.011Z,44.70
2023-04-11T19:12:58.026Z,46.10
2023-04-11T19:15:26.726Z,40.40
2023-04-11T19:17:56.266Z,40.90
2023-04-11T19:20:26.901Z,41.50
2023-04-11T19:22:55.614Z,41.00
2023-04-11T19:25:24.610Z,34.00
2023-04-11T19:27:53.286Z,32.70
2023-04-11T19:30:22.216Z,36.20
2023-04-11T19:32:50.998Z,34.60
2023-04-11T19:35:24.230Z,37.30
2023-04-11T19:37:53.759Z,39.20
2023-04-11T19:40:23.638Z,43.00
2023-04-11T19:42:52.489Z,31.80
2023-04-11T19:45:22.264Z,40.20
2023-04-11T19:47:51.548Z,38.40
2023-04-11T19:50:20.654Z,32.20
2023-04-11T19:52:49.382Z,31.10
2023-04-11T19:55:18.137Z,32.90
2023-04-11T19:57:46.960Z,33.90
2023-04-11T20:00:17.493Z,28.70
2023-04-11T20:02:48.684Z,33.70
2023-04-11T20:05:20.063Z,35.80
2023-04-11T20:07:49.200Z,28.30
2023-04-11T20:10:18.198Z,30.90
2023-04-11T20:12:46.951Z,26.40
2023-04-11T20:15:15.985Z,23.50
2023-04-11T20:17:46.348Z,30.60
2023-04-11T20:20:15.865Z,28.70
2023-04-11T20:22:45.137Z,33.10
2023-04-11T20:25:15.144Z,30.40
2023-04-11T20:27:45.068Z,31.40
2023-04-11T20:30:16.665Z,33.50
2023-04-11T20:32:45.787Z,35.90
2023-04-11T20:35:14.871Z,31.70
2023-04-11T20:37:43.868Z,31.90
2023-04-11T20:40:14.262Z,32.20
2023-04-11T20:42:47.696Z,32.60
2023-04-11T20:47:47.938Z,36.20
2023-04-11T20:50:17.896Z,33.70
2023-04-11T20:52:51.492Z,28.10
2023-04-11T20:55:21.195Z,34.30
2023-04-11T20:57:50.589Z,33.90
2023-04-11T21:00:20.227Z,34.00
2023-04-11T21:02:50.647Z,33.20
2023-04-11T21:05:25.175Z,34.10
2023-04-11T21:07:58.513Z,37.30
2023-04-11T21:10:27.290Z,35.50
2023-04-11T21:12:56.282Z,34.70
2023-04-11T21:15:25.703Z,31.70
2023-04-11T21:17:54.509Z,30.50
2023-04-11T21:20:23.486Z,33.30
2023-04-11T21:22:53.625Z,27.50
2023-04-11T21:25:23.784Z,34.60
2023-04-11T21:27:52.490Z,40.40
2023-04-11T21:30:21.340Z,36.40
2023-04-11T21:32:50.158Z,36.70
2023-04-11T21:35:18.959Z,35.80
2023-04-11T21:37:49.216Z,36.70
2023-04-11T21:40:18.084Z,34.90
2023-04-11T21:42:46.726Z,30.10
2023-04-11T21:45:15.744Z,33.40
2023-04-11T21:47:44.601Z,34.70
2023-04-11T21:50:13.355Z,34.70
2023-04-11T21:52:42.154Z,31.50
2023-04-11T21:55:11.696Z,31.60
2023-04-11T21:57:40.748Z,30.80
2023-04-11T22:00:12.968Z,36.60
2023-04-11T22:02:41.884Z,32.60
2023-04-11T22:05:11.090Z,33.80
2023-04-11T22:07:48.619Z,30.60
2023-04-11T22:10:22.940Z,36.70
2023-04-11T22:12:54.713Z,35.20
2023-04-11T22:15:24.470Z,35.50
2023-04-11T22:17:56.596Z,32.10
2023-04-11T22:20:25.676Z,31.30
2023-04-11T22:22:56.979Z,28.40
2023-04-11T22:25:25.968Z,33.80
2023-04-11T22:27:54.960Z,32.40
2023-04-11T22:30:24.549Z,26.40
2023-04-11T22:32:54.583Z,30.40
2023-04-11T22:35:26.129Z,29.60
2023-04-11T22:37:57.970Z,33.00
2023-04-11T22:40:26.754Z,25.10
2023-04-11T22:42:55.987Z,26.80
2023-04-11T22:45:24.842Z,29.80
2023-04-11T22:48:00.323Z,29.60
2023-04-11T22:50:29.008Z,29.50
2023-04-11T22:52:57.692Z,27.50
2023-04-11T22:55:26.335Z,26.90
2023-04-11T22:57:55.023Z,26.20
2023-04-11T23:00:24.242Z,28.30
2023-04-11T23:02:53.150Z,30.50
2023-04-11T23:05:21.844Z,27.80
2023-04-11T23:07:50.853Z,26.10
2023-04-11T23:10:19.582Z,31.00
2023-04-11T23:12:49.665Z,31.80
2023-04-11T23:15:18.560Z,29.30
2023-04-11T23:17:47.483Z,25.30
2023-04-11T23:20:17.763Z,24.70
2023-04-11T23:22:46.471Z,30.70
2023-04-11T23:25:15.577Z,29.80
2023-04-11T23:27:45.063Z,32.00
2023-04-11T23:30:17.714Z,31.20
2023-04-11T23:32:47.363Z,29.40
2023-04-11T23:35:19.571Z,28.60
2023-04-11T23:37:48.259Z,30.50
2023-04-11T23:40:16.975Z,30.30
2023-04-11T23:42:45.792Z,31.00
2023-04-11T23:45:15.236Z,31.40
2023-04-11T23:47:44.221Z,31.40
2023-04-11T23:50:12.961Z,35.00
2023-04-11T23:52:41.900Z,32.10
2023-04-11T23:55:11.110Z,35.80
2023-04-11T23:57:39.929Z,31.20
